createdAt,value
2019-06-26T00:01:11.769Z,100876.00
2019-06-26T00:03:39.795Z,100876.00
2019-06-26T00:06:07.661Z,100878.00
2019-06-26T00:08:35.601Z,100872.00
2019-06-26T00:11:03.603Z,100884.00
2019-06-26T00:13:31.463Z,100881.00
2019-06-26T00:15:59.426Z,100881.00
2019-06-26T00:18:27.326Z,100877.00
2019-06-26T00:20:55.202Z,100889.00
2019-06-26T00:23:23.070Z,100859.00
2019-06-26T00:25:50.938Z,100887.00
2019-06-26T00:28:18.874Z,100894.00
2019-06-26T00:30:46.936Z,100888.00
2019-06-26T00:33:14.892Z,100897.00
2019-06-26T00:35:42.822Z,100889.00
2019-06-26T00:38:10.720Z,100891.00
2019-06-26T00:40:38.641Z,100889.00
2019-06-26T00:43:06.862Z,100884.00
2019-06-26T00:45:34.800Z,100884.00
2019-06-26T00:48:02.942Z,100897.00
2019-06-26T00:50:30.791Z,100881.00
2019-06-26T00:52:58.661Z,100888.00
2019-06-26T00:55:26.505Z,100888.00
2019-06-26T00:57:54.371Z,100888.00
2019-06-26T01:00:31.747Z,100887.00
2019-06-26T01:02:59.654Z,100885.00
2019-06-26T01:05:28.719Z,100882.00
2019-06-26T01:07:56.618Z,100885.00
2019-06-26T01:10:25.085Z,100882.00
2019-06-26T01:12:52.968Z,100888.00
2019-06-26T01:15:20.884Z,100890.00
2019-06-26T01:17:48.793Z,100891.00
2019-06-26T01:20:16.786Z,100887.00
2019-06-26T01:22:44.673Z,100897.00
2019-06-26T01:25:12.875Z,100899.00
2019-06-26T01:27:40.776Z,100894.00
2019-06-26T01:30:09.402Z,100899.00
2019-06-26T01:32:37.296Z,100894.00
2019-06-26T01:35:05.889Z,100902.00
2019-06-26T01:37:33.789Z,100900.00
2019-06-26T01:40:01.730Z,100896.00
2019-06-26T01:42:29.562Z,100898.00
2019-06-26T01:44:57.618Z,100895.00
2019-06-26T01:47:25.456Z,100897.00
2019-06-26T01:49:53.367Z,100898.00
2019-06-26T01:52:21.382Z,100901.00
2019-06-26T01:54:49.347Z,100902.00
2019-06-26T01:57:17.212Z,100901.00
2019-06-26T01:59:45.131Z,100899.00
2019-06-26T02:02:14.137Z,100911.00
2019-06-26T02:04:42.098Z,100908.00
2019-06-26T02:07:10.001Z,100905.00
2019-06-26T02:09:37.914Z,100909.00
2019-06-26T02:12:05.871Z,100907.00
2019-06-26T02:14:33.875Z,100908.00
2019-06-26T02:17:02.981Z,100898.00
2019-06-26T02:19:30.900Z,100902.00
2019-06-26T02:21:58.709Z,100905.00
2019-06-26T02:24:26.561Z,100906.00
2019-06-26T02:26:54.425Z,100908.00
2019-06-26T02:29:22.349Z,100901.00
2019-06-26T02:31:50.187Z,100901.00
2019-06-26T02:34:18.140Z,100911.00
2019-06-26T02:36:46.006Z,100911.00
2019-06-26T02:39:14.944Z,100905.00
2019-06-26T02:41:42.776Z,100902.00
2019-06-26T02:44:10.629Z,100899.00
2019-06-26T02:46:38.494Z,100904.00
2019-06-26T02:49:06.382Z,100892.00
2019-06-26T02:51:34.259Z,100901.00
2019-06-26T02:54:02.154Z,100897.00
2019-06-26T02:56:30.083Z,100910.00
2019-06-26T02:58:57.986Z,100911.00
2019-06-26T03:01:25.900Z,100912.00
2019-06-26T03:03:53.745Z,100910.00
2019-06-26T03:06:21.714Z,100914.00
2019-06-26T03:08:49.635Z,100913.00
2019-06-26T03:11:17.551Z,100914.00
2019-06-26T03:13:45.383Z,100918.00
2019-06-26T03:16:14.156Z,100917.00
2019-06-26T03:18:42.021Z,100922.00
2019-06-26T03:21:09.943Z,100915.00
2019-06-26T03:23:37.756Z,100923.00
2019-06-26T03:26:05.693Z,100920.00
2019-06-26T03:28:33.682Z,100930.00
2019-06-26T03:31:02.205Z,100929.00
2019-06-26T03:33:30.115Z,100940.00
2019-06-26T03:35:58.029Z,100935.00
2019-06-26T03:38:26.041Z,100943.00
2019-06-26T03:40:53.975Z,100941.00
2019-06-26T03:43:21.991Z,100943.00
2019-06-26T03:45:49.906Z,100942.00
2019-06-26T03:48:17.850Z,100938.00
2019-06-26T03:50:45.742Z,100943.00
2019-06-26T03:53:13.701Z,100947.00
2019-06-26T03:55:41.682Z,100947.00
2019-06-26T03:58:09.547Z,100943.00
2019-06-26T04:00:40.218Z,100950.00
2019-06-26T04:03:08.329Z,100942.00
2019-06-26T04:05:36.329Z,100944.00
2019-06-26T04:08:04.376Z,100944.00
2019-06-26T04:10:32.419Z,100956.00
2019-06-26T04:13:00.378Z,100952.00
2019-06-26T04:15:41.521Z,100968.00
2019-06-26T04:17:58.134Z,100970.00
2019-06-26T04:20:26.141Z,100971.00
2019-06-26T04:22:54.028Z,100965.00
2019-06-26T04:25:22.006Z,100968.00
2019-06-26T04:27:49.880Z,100968.00
2019-06-26T04:30:18.083Z,100969.00
2019-06-26T04:32:45.997Z,100973.00
2019-06-26T04:35:15.995Z,100969.00
2019-06-26T04:37:43.969Z,100971.00
2019-06-26T04:40:13.581Z,100976.00
2019-06-26T04:42:41.466Z,100977.00
2019-06-26T04:45:10.136Z,100972.00
2019-06-26T04:47:37.970Z,100982.00
2019-06-26T04:50:06.291Z,100977.00
2019-06-26T04:52:34.202Z,100987.00
2019-06-26T04:55:03.707Z,100987.00
2019-06-26T04:57:31.644Z,100992.00
2019-06-26T04:59:59.789Z,100992.00
2019-06-26T05:02:29.009Z,100997.00
2019-06-26T05:04:56.846Z,101001.00
2019-06-26T05:07:24.789Z,100995.00
2019-06-26T05:09:52.689Z,100998.00
2019-06-26T05:12:20.636Z,100994.00
2019-06-26T05:14:48.523Z,101003.00
2019-06-26T05:17:16.429Z,100999.00
2019-06-26T05:19:45.038Z,101007.00
2019-06-26T05:22:12.918Z,101007.00
2019-06-26T05:24:40.821Z,101011.00
2019-06-26T05:27:08.807Z,101006.00
2019-06-26T05:29:36.730Z,101014.00
2019-06-26T05:32:04.804Z,101016.00
2019-06-26T05:34:32.671Z,101016.00
2019-06-26T05:37:00.569Z,101015.00
2019-06-26T05:39:28.651Z,101015.00
2019-06-26T05:41:56.495Z,101020.00
2019-06-26T05:44:24.370Z,101026.00
2019-06-26T05:46:52.235Z,101022.00
2019-06-26T05:49:20.120Z,101035.00
2019-06-26T05:51:47.998Z,101033.00
2019-06-26T05:54:15.904Z,101032.00
2019-06-26T05:56:45.451Z,101025.00
2019-06-26T05:59:13.525Z,101030.00
2019-06-26T06:01:41.382Z,101029.00
2019-06-26T06:04:22.668Z,101031.00
2019-06-26T06:06:50.612Z,101031.00
2019-06-26T06:09:18.449Z,101036.00
2019-06-26T06:11:46.333Z,101032.00
2019-06-26T06:14:14.230Z,101026.00
2019-06-26T06:16:47.431Z,101033.00
2019-06-26T06:19:11.930Z,101035.00
2019-06-26T06:21:39.809Z,101041.00
2019-06-26T06:24:07.732Z,101032.00
2019-06-26T06:26:35.771Z,101030.00
2019-06-26T06:29:03.763Z,101032.00
2019-06-26T06:31:31.641Z,101036.00
2019-06-26T06:34:00.667Z,101038.00
2019-06-26T06:36:28.804Z,101041.00
2019-06-26T06:38:56.778Z,101040.00
2019-06-26T06:41:24.662Z,101045.00
2019-06-26T06:43:52.528Z,101042.00
2019-06-26T06:46:20.398Z,101047.00
2019-06-26T06:48:48.280Z,101046.00
2019-06-26T06:51:16.220Z,101051.00
2019-06-26T06:53:44.290Z,101049.00
2019-06-26T06:56:12.274Z,101055.00
2019-06-26T06:58:40.166Z,101060.00
2019-06-26T07:01:08.166Z,101065.00
2019-06-26T07:03:36.264Z,101071.00
2019-06-26T07:06:04.193Z,101073.00
2019-06-26T07:08:32.215Z,101068.00
2019-06-26T07:11:00.107Z,101076.00
2019-06-26T07:13:31.060Z,101077.00
2019-06-26T07:15:58.955Z,101078.00
2019-06-26T07:18:27.019Z,101073.00
2019-06-26T07:20:54.975Z,101084.00
2019-06-26T07:23:22.842Z,101073.00
2019-06-26T07:25:51.042Z,101076.00
2019-06-26T07:28:19.687Z,101077.00
2019-06-26T07:30:47.880Z,101086.00
2019-06-26T07:33:15.878Z,101078.00
2019-06-26T07:35:43.984Z,101082.00
2019-06-26T07:38:11.941Z,101078.00
2019-06-26T07:40:40.140Z,101086.00
2019-06-26T07:43:08.094Z,101086.00
2019-06-26T07:45:36.473Z,101092.00
2019-06-26T07:48:04.471Z,101099.00
2019-06-26T07:50:32.818Z,101096.00
2019-06-26T07:53:01.513Z,101092.00
2019-06-26T07:55:29.482Z,101099.00
2019-06-26T07:57:57.583Z,101105.00
2019-06-26T08:00:26.486Z,101103.00
2019-06-26T08:02:54.405Z,101102.00
2019-06-26T08:05:22.390Z,101102.00
2019-06-26T08:07:50.225Z,101103.00
2019-06-26T08:10:18.852Z,101104.00
2019-06-26T08:12:47.029Z,101108.00
2019-06-26T08:15:15.235Z,101101.00
2019-06-26T08:17:59.426Z,101108.00
2019-06-26T08:20:14.014Z,101113.00
2019-06-26T08:22:42.049Z,101115.00
2019-06-26T08:25:10.343Z,101116.00
2019-06-26T08:27:38.503Z,101120.00
2019-06-26T08:30:06.980Z,101125.00
2019-06-26T08:32:34.920Z,101117.00
2019-06-26T08:35:03.064Z,101111.00
2019-06-26T08:37:31.045Z,101124.00
2019-06-26T08:39:58.935Z,101121.00
2019-06-26T08:42:26.892Z,101116.00
2019-06-26T08:44:54.940Z,101119.00
2019-06-26T08:47:22.885Z,101119.00
2019-06-26T08:49:50.882Z,101115.00
2019-06-26T08:52:18.872Z,101115.00
2019-06-26T08:54:46.830Z,101113.00
2019-06-26T08:57:14.785Z,101111.00
2019-06-26T08:59:42.694Z,101117.00
2019-06-26T09:02:10.827Z,101114.00
2019-06-26T09:04:38.808Z,101116.00
2019-06-26T09:07:06.869Z,101112.00
2019-06-26T09:09:35.015Z,101116.00
2019-06-26T09:12:03.016Z,101117.00
2019-06-26T09:14:33.039Z,101113.00
2019-06-26T09:17:01.262Z,101120.00
2019-06-26T09:19:30.386Z,101119.00
2019-06-26T09:21:58.480Z,101113.00
2019-06-26T09:24:26.473Z,101119.00
2019-06-26T09:26:55.341Z,101110.00
2019-06-26T09:29:24.117Z,101115.00
2019-06-26T09:31:52.205Z,101110.00
2019-06-26T09:34:20.093Z,101110.00
2019-06-26T09:36:47.993Z,101113.00
2019-06-26T09:39:16.116Z,101114.00
2019-06-26T09:41:44.169Z,101113.00
2019-06-26T09:44:12.297Z,101116.00
2019-06-26T09:46:40.259Z,101112.00
2019-06-26T09:49:08.263Z,101107.00
2019-06-26T09:51:36.327Z,101106.00
2019-06-26T09:54:04.389Z,101105.00
2019-06-26T09:56:32.439Z,101108.00
2019-06-26T09:59:00.474Z,101102.00
2019-06-26T10:01:29.887Z,101100.00
2019-06-26T10:03:57.852Z,101101.00
2019-06-26T10:06:25.713Z,101103.00
2019-06-26T10:08:54.564Z,101107.00
2019-06-26T10:11:22.666Z,101108.00
2019-06-26T10:13:50.695Z,101107.00
2019-06-26T10:16:18.966Z,101095.00
2019-06-26T10:18:46.921Z,101101.00
2019-06-26T10:21:15.007Z,101099.00
2019-06-26T10:23:42.974Z,101109.00
2019-06-26T10:26:10.903Z,101110.00
2019-06-26T10:28:38.975Z,101113.00
2019-06-26T10:31:08.496Z,101103.00
2019-06-26T10:33:36.568Z,101099.00
2019-06-26T10:36:04.544Z,101095.00
2019-06-26T10:38:32.480Z,101091.00
2019-06-26T10:41:01.403Z,101095.00
2019-06-26T10:43:29.294Z,101089.00
2019-06-26T10:45:57.257Z,101087.00
2019-06-26T10:48:25.138Z,101090.00
2019-06-26T10:50:58.394Z,101090.00
2019-06-26T10:53:22.804Z,101092.00
2019-06-26T10:55:50.752Z,101089.00
2019-06-26T10:58:18.696Z,101099.00
2019-06-26T11:00:46.708Z,101089.00
2019-06-26T11:03:14.724Z,101089.00
2019-06-26T11:05:43.250Z,101078.00
2019-06-26T11:08:11.181Z,101083.00
2019-06-26T11:10:39.199Z,101077.00
2019-06-26T11:13:07.245Z,101074.00
2019-06-26T11:15:35.197Z,101070.00
2019-06-26T11:18:03.139Z,101073.00
2019-06-26T11:20:31.321Z,101070.00
2019-06-26T11:22:59.442Z,101070.00
2019-06-26T11:25:27.379Z,101070.00
2019-06-26T11:27:55.313Z,101066.00
2019-06-26T11:30:24.274Z,101068.00
2019-06-26T11:32:52.197Z,101062.00
2019-06-26T11:35:20.128Z,101064.00
2019-06-26T11:37:48.090Z,101055.00
2019-06-26T11:40:16.103Z,101055.00
2019-06-26T11:42:44.188Z,101054.00
2019-06-26T11:45:12.571Z,101053.00
2019-06-26T11:47:40.473Z,101054.00
2019-06-26T11:50:09.124Z,101053.00
2019-06-26T11:52:37.032Z,101057.00
2019-06-26T11:55:05.599Z,101042.00
2019-06-26T11:57:33.493Z,101046.00
2019-06-26T12:00:01.959Z,101039.00
2019-06-26T12:02:30.210Z,101039.00
2019-06-26T12:04:58.086Z,101048.00
2019-06-26T12:07:26.195Z,101044.00
2019-06-26T12:09:54.303Z,101046.00
2019-06-26T12:12:22.159Z,101045.00
2019-06-26T12:14:51.187Z,101038.00
2019-06-26T12:17:19.234Z,101040.00
2019-06-26T12:19:47.356Z,101046.00
2019-06-26T12:22:18.015Z,100971.00
2019-06-26T12:24:45.905Z,101038.00
2019-06-26T12:27:13.791Z,101037.00
2019-06-26T12:29:41.700Z,101036.00
2019-06-26T12:32:09.738Z,101042.00
2019-06-26T12:34:37.613Z,101041.00
2019-06-26T12:37:05.517Z,101043.00
2019-06-26T12:39:33.421Z,101042.00
2019-06-26T12:42:01.396Z,101042.00
2019-06-26T12:44:29.401Z,101035.00
2019-06-26T12:46:57.275Z,101038.00
2019-06-26T12:49:25.373Z,101035.00
2019-06-26T12:51:53.356Z,101029.00
2019-06-26T12:54:21.264Z,101028.00
2019-06-26T12:56:49.177Z,101022.00
2019-06-26T12:59:17.093Z,101023.00
2019-06-26T13:01:44.995Z,101025.00
2019-06-26T13:04:12.949Z,101017.00
2019-06-26T13:06:40.807Z,101019.00
2019-06-26T13:09:08.741Z,101017.00
2019-06-26T13:11:36.835Z,101005.00
2019-06-26T13:14:04.908Z,101004.00
2019-06-26T13:16:32.765Z,101006.00
2019-06-26T13:19:00.692Z,101001.00
2019-06-26T13:21:28.575Z,100999.00
2019-06-26T13:23:56.397Z,101005.00
2019-06-26T13:26:24.344Z,100993.00
2019-06-26T13:28:52.208Z,100995.00
2019-06-26T13:31:20.155Z,100999.00
2019-06-26T13:33:47.992Z,100992.00
2019-06-26T13:36:16.010Z,100994.00
2019-06-26T13:38:43.922Z,100985.00
2019-06-26T13:41:11.874Z,100993.00
2019-06-26T13:43:40.807Z,100997.00
2019-06-26T13:46:08.701Z,100991.00
2019-06-26T13:48:36.666Z,100994.00
2019-06-26T13:51:09.441Z,100984.00
2019-06-26T13:53:34.270Z,100993.00
2019-06-26T13:56:02.529Z,100997.00
2019-06-26T13:58:30.411Z,100992.00
2019-06-26T14:00:58.308Z,100984.00
2019-06-26T14:03:26.129Z,100983.00
2019-06-26T14:05:53.990Z,100985.00
2019-06-26T14:08:21.805Z,100991.00
2019-06-26T14:10:49.664Z,100988.00
2019-06-26T14:13:17.672Z,100994.00
2019-06-26T14:15:45.513Z,100977.00
2019-06-26T14:18:13.393Z,100986.00
2019-06-26T14:20:41.270Z,100982.00
2019-06-26T14:23:09.244Z,100981.00
2019-06-26T14:25:37.185Z,100972.00
2019-06-26T14:28:05.054Z,100977.00
2019-06-26T14:30:32.926Z,100974.00
2019-06-26T14:33:00.762Z,100967.00
2019-06-26T14:35:28.586Z,100976.00
2019-06-26T14:37:56.426Z,100967.00
2019-06-26T14:40:24.345Z,100969.00
2019-06-26T14:42:52.189Z,100972.00
2019-06-26T14:45:20.119Z,100970.00
2019-06-26T14:47:47.934Z,100963.00
2019-06-26T14:50:16.138Z,100966.00
2019-06-26T14:52:46.036Z,100962.00
2019-06-26T14:55:14.170Z,100965.00
2019-06-26T14:57:42.055Z,100967.00
2019-06-26T15:00:10.234Z,100959.00
2019-06-26T15:02:38.107Z,100965.00
2019-06-26T15:05:06.759Z,100957.00
2019-06-26T15:07:34.677Z,100962.00
2019-06-26T15:10:02.533Z,100961.00
2019-06-26T15:12:30.368Z,100963.00
2019-06-26T15:14:58.181Z,100955.00
2019-06-26T15:17:26.017Z,100962.00
2019-06-26T15:19:53.831Z,100951.00
2019-06-26T15:22:22.820Z,100955.00
2019-06-26T15:24:50.681Z,100952.00
2019-06-26T15:27:18.822Z,100944.00
2019-06-26T15:29:46.723Z,100950.00
2019-06-26T15:32:14.530Z,100947.00
2019-06-26T15:34:42.457Z,100946.00
2019-06-26T15:37:10.302Z,100936.00
2019-06-26T15:39:38.219Z,100935.00
2019-06-26T15:42:06.107Z,100931.00
2019-06-26T15:44:33.973Z,100935.00
2019-06-26T15:47:01.813Z,100939.00
2019-06-26T15:49:29.694Z,100926.00
2019-06-26T15:52:13.769Z,100929.00
2019-06-26T15:54:27.349Z,100931.00
2019-06-26T15:56:55.232Z,100926.00
2019-06-26T15:59:23.094Z,100931.00
2019-06-26T16:01:50.934Z,100924.00
2019-06-26T16:04:22.765Z,100916.00
2019-06-26T16:06:50.604Z,100921.00
2019-06-26T16:09:18.435Z,100923.00
2019-06-26T16:11:46.281Z,100912.00
2019-06-26T16:14:14.195Z,100915.00
2019-06-26T16:16:43.960Z,100909.00
2019-06-26T16:19:15.052Z,100916.00
2019-06-26T16:21:42.925Z,100906.00
2019-06-26T16:24:10.738Z,100902.00
2019-06-26T16:26:38.689Z,100904.00
2019-06-26T16:29:06.499Z,100904.00
2019-06-26T16:31:34.713Z,100912.00
2019-06-26T16:34:02.549Z,100901.00
2019-06-26T16:36:30.422Z,100914.00
2019-06-26T16:38:58.284Z,100907.00
2019-06-26T16:41:26.170Z,100908.00
2019-06-26T16:43:54.076Z,100901.00
2019-06-26T16:46:21.968Z,100906.00
2019-06-26T16:48:49.795Z,100904.00
2019-06-26T16:51:17.689Z,100899.00
2019-06-26T16:53:45.575Z,100904.00
2019-06-26T16:56:13.469Z,100905.00
2019-06-26T16:58:41.366Z,100909.00
2019-06-26T17:01:09.282Z,100913.00
2019-06-26T17:03:37.184Z,100910.00
2019-06-26T17:06:05.161Z,100907.00
2019-06-26T17:08:34.132Z,100901.00
2019-06-26T17:11:02.166Z,100905.00
2019-06-26T17:13:29.991Z,100900.00
2019-06-26T17:15:57.899Z,100903.00
2019-06-26T17:18:25.764Z,100904.00
2019-06-26T17:20:53.673Z,100907.00
2019-06-26T17:23:21.547Z,100908.00
2019-06-26T17:25:49.517Z,100901.00
2019-06-26T17:28:17.316Z,100906.00
2019-06-26T17:30:46.317Z,100903.00
2019-06-26T17:33:14.420Z,100905.00
2019-06-26T17:35:42.339Z,100903.00
2019-06-26T17:38:10.209Z,100903.00
2019-06-26T17:40:38.117Z,100900.00
2019-06-26T17:43:12.251Z,100895.00
2019-06-26T17:45:35.921Z,100899.00
2019-06-26T17:48:03.793Z,100899.00
2019-06-26T17:50:34.835Z,100896.00
2019-06-26T17:53:02.752Z,100902.00
2019-06-26T17:55:30.616Z,100895.00
2019-06-26T17:57:58.616Z,100901.00
2019-06-26T18:00:34.026Z,100897.00
2019-06-26T18:03:02.094Z,100904.00
2019-06-26T18:05:30.121Z,100907.00
2019-06-26T18:07:58.147Z,100899.00
2019-06-26T18:10:26.109Z,100905.00
2019-06-26T18:12:54.076Z,100902.00
2019-06-26T18:15:22.343Z,100904.00
2019-06-26T18:17:50.405Z,100900.00
2019-06-26T18:20:18.403Z,100906.00
2019-06-26T18:22:46.640Z,100911.00
2019-06-26T18:25:16.695Z,100915.00
2019-06-26T18:27:44.841Z,100907.00
2019-06-26T18:30:13.066Z,100912.00
2019-06-26T18:32:41.143Z,100917.00
2019-06-26T18:35:09.539Z,100918.00
2019-06-26T18:37:37.532Z,100920.00
2019-06-26T18:40:05.720Z,100930.00
2019-06-26T18:42:33.686Z,100928.00
2019-06-26T18:45:01.665Z,100931.00
2019-06-26T18:47:30.652Z,100930.00
2019-06-26T18:49:58.610Z,100929.00
2019-06-26T18:52:27.062Z,100936.00
2019-06-26T18:54:55.448Z,100935.00
2019-06-26T18:57:23.515Z,100934.00
2019-06-26T18:59:51.557Z,100935.00
2019-06-26T19:02:19.566Z,100937.00
2019-06-26T19:04:47.448Z,100932.00
2019-06-26T19:07:15.525Z,100938.00
2019-06-26T19:09:43.582Z,100929.00
2019-06-26T19:12:11.551Z,100939.00
2019-06-26T19:14:39.733Z,100931.00
2019-06-26T19:17:07.775Z,100933.00
2019-06-26T19:19:35.625Z,100934.00
2019-06-26T19:22:04.045Z,100945.00
2019-06-26T19:24:31.975Z,100945.00
2019-06-26T19:26:59.984Z,100943.00
2019-06-26T19:29:30.538Z,100944.00
2019-06-26T19:31:58.507Z,100958.00
2019-06-26T19:34:26.476Z,100957.00
2019-06-26T19:36:54.407Z,100960.00
2019-06-26T19:39:22.400Z,100969.00
2019-06-26T19:41:50.542Z,100971.00
2019-06-26T19:44:18.374Z,100976.00
2019-06-26T19:46:46.301Z,100986.00
2019-06-26T19:49:14.192Z,100983.00
2019-06-26T19:51:42.180Z,100978.00
2019-06-26T19:54:22.900Z,100985.00
2019-06-26T19:56:54.321Z,100984.00
2019-06-26T19:59:22.343Z,100992.00
2019-06-26T20:01:51.442Z,100989.00
2019-06-26T20:04:19.549Z,101002.00
2019-06-26T20:06:48.615Z,100994.00
2019-06-26T20:09:16.509Z,101005.00
2019-06-26T20:11:44.550Z,100995.00
2019-06-26T20:14:12.575Z,100997.00
2019-06-26T20:16:40.585Z,101005.00
2019-06-26T20:19:08.809Z,101013.00
2019-06-26T20:21:37.183Z,101015.00
2019-06-26T20:24:08.012Z,101010.00
2019-06-26T20:26:36.186Z,101006.00
2019-06-26T20:29:04.087Z,101009.00
2019-06-26T20:31:32.861Z,101020.00
2019-06-26T20:34:01.025Z,101005.00
2019-06-26T20:36:29.153Z,101009.00
2019-06-26T20:38:57.214Z,101013.00
2019-06-26T20:41:25.472Z,101007.00
2019-06-26T20:43:54.819Z,101012.00
2019-06-26T20:46:25.597Z,101015.00
2019-06-26T20:48:54.319Z,101016.00
2019-06-26T20:51:22.637Z,101027.00
2019-06-26T20:53:50.653Z,101012.00
2019-06-26T20:56:18.724Z,101022.00
2019-06-26T20:58:46.762Z,101024.00
2019-06-26T21:01:14.929Z,101038.00
2019-06-26T21:03:43.386Z,101038.00
2019-06-26T21:06:13.540Z,101037.00
2019-06-26T21:08:41.530Z,101049.00
2019-06-26T21:11:09.529Z,101054.00
2019-06-26T21:13:37.824Z,101060.00
2019-06-26T21:16:06.153Z,101055.00
2019-06-26T21:18:34.140Z,101058.00
2019-06-26T21:21:02.219Z,101064.00
2019-06-26T21:23:30.429Z,101073.00
2019-06-26T21:25:58.632Z,101071.00
2019-06-26T21:28:26.720Z,101075.00
2019-06-26T21:30:55.301Z,101084.00
2019-06-26T21:33:23.360Z,101071.00
2019-06-26T21:35:51.698Z,101080.00
2019-06-26T21:38:19.810Z,101082.00
2019-06-26T21:40:48.773Z,101089.00
2019-06-26T21:43:16.894Z,101084.00
2019-06-26T21:45:45.043Z,101100.00
2019-06-26T21:48:15.131Z,101093.00
2019-06-26T21:50:43.887Z,101100.00
2019-06-26T21:53:12.377Z,101093.00
2019-06-26T21:55:42.080Z,101094.00
2019-06-26T21:58:28.958Z,101090.00
2019-06-26T22:01:15.942Z,101096.00
2019-06-26T22:04:02.508Z,101109.00
2019-06-26T22:06:35.604Z,101111.00
2019-06-26T22:09:23.421Z,101121.00
2019-06-26T22:11:52.668Z,101113.00
2019-06-26T22:14:20.685Z,101114.00
2019-06-26T22:16:48.727Z,101107.00
2019-06-26T22:19:16.763Z,101118.00
2019-06-26T22:21:44.799Z,101124.00
2019-06-26T22:24:12.765Z,101115.00
2019-06-26T22:26:41.897Z,101120.00
2019-06-26T22:29:09.774Z,101122.00
2019-06-26T22:31:37.821Z,101124.00
2019-06-26T22:34:05.767Z,101121.00
2019-06-26T22:36:33.672Z,101123.00
2019-06-26T22:39:01.645Z,101121.00
2019-06-26T22:41:31.784Z,101125.00
2019-06-26T22:43:59.684Z,101128.00
2019-06-26T22:46:27.638Z,101143.00
2019-06-26T22:48:55.548Z,101131.00
2019-06-26T22:51:23.562Z,101135.00
2019-06-26T22:53:51.531Z,101135.00
2019-06-26T22:56:19.439Z,101126.00
2019-06-26T22:58:47.434Z,101138.00
2019-06-26T23:01:15.376Z,101137.00
2019-06-26T23:03:43.266Z,101136.00
2019-06-26T23:06:11.145Z,101138.00
2019-06-26T23:08:40.275Z,101143.00
2019-06-26T23:11:08.206Z,101141.00
2019-06-26T23:13:36.083Z,101147.00
2019-06-26T23:16:04.244Z,101146.00
2019-06-26T23:18:32.160Z,101138.00
2019-06-26T23:21:00.019Z,101136.00
2019-06-26T23:23:27.931Z,101138.00
2019-06-26T23:25:55.851Z,101152.00
2019-06-26T23:28:23.799Z,101146.00
2019-06-26T23:30:51.751Z,101155.00
2019-06-26T23:33:19.641Z,101159.00
2019-06-26T23:35:47.629Z,101147.00
2019-06-26T23:38:15.578Z,101156.00
2019-06-26T23:40:44.571Z,101156.00
2019-06-26T23:43:12.462Z,101159.00
2019-06-26T23:45:40.658Z,101155.00
2019-06-26T23:48:08.499Z,101159.00
2019-06-26T23:50:36.402Z,101167.00
2019-06-26T23:53:04.283Z,101158.00
2019-06-26T23:55:32.167Z,101164.00
2019-06-26T23:58:00.042Z,101155.00
